createdAt,value
2017-03-09T00:00:58.963Z,42.90
2017-03-09T00:01:58.048Z,43.20
2017-03-09T00:02:56.664Z,45.48
2017-03-09T00:03:55.331Z,47.30
2017-03-09T00:04:54.099Z,38.52
2017-03-09T00:05:52.743Z,30.92
2017-03-09T00:06:51.384Z,34.35
2017-03-09T00:07:50.320Z,32.33
2017-03-09T00:08:48.955Z,30.67
2017-03-09T00:09:47.611Z,32.90
2017-03-09T00:10:46.246Z,25.53
2017-03-09T00:11:56.068Z,32.85
2017-03-09T00:13:05.866Z,36.90
2017-03-09T00:14:15.803Z,34.98
2017-03-09T00:15:14.446Z,47.77
2017-03-09T00:16:13.126Z,36.93
2017-03-09T00:17:11.794Z,36.15
2017-03-09T00:18:10.836Z,39.97
2017-03-09T00:19:09.450Z,50.83
2017-03-09T00:20:08.062Z,53.47
2017-03-09T00:21:06.741Z,49.12
2017-03-09T00:22:05.516Z,45.42
2017-03-09T00:23:04.153Z,50.10
2017-03-09T00:24:03.315Z,65.15
2017-03-09T00:25:01.873Z,69.65
2017-03-09T00:26:00.501Z,52.68
2017-03-09T00:26:59.159Z,59.00
2017-03-09T00:27:58.280Z,63.78
2017-03-09T00:28:56.895Z,51.97
2017-03-09T00:29:55.639Z,43.92
2017-03-09T00:30:54.286Z,45.68
2017-03-09T00:31:52.973Z,38.37
2017-03-09T00:32:51.599Z,49.00
2017-03-09T00:33:50.695Z,44.18
2017-03-09T00:34:49.429Z,40.10
2017-03-09T00:35:48.889Z,34.67
2017-03-09T00:36:48.171Z,42.80
2017-03-09T00:37:46.927Z,44.23
2017-03-09T00:38:45.798Z,45.68
2017-03-09T00:39:45.552Z,45.13
2017-03-09T00:40:45.510Z,43.37
2017-03-09T00:41:44.712Z,44.88
2017-03-09T00:42:44.097Z,42.77
2017-03-09T00:43:43.522Z,46.25
2017-03-09T00:44:42.355Z,48.37
2017-03-09T00:45:41.369Z,44.83
2017-03-09T00:46:40.769Z,47.12
2017-03-09T00:47:39.703Z,40.88
2017-03-09T00:48:38.604Z,33.18
2017-03-09T00:49:37.346Z,32.77
2017-03-09T00:50:36.526Z,28.70
2017-03-09T00:51:37.887Z,31.68
2017-03-09T00:52:37.380Z,28.58
2017-03-09T00:53:36.338Z,32.90
2017-03-09T00:54:35.352Z,32.05
2017-03-09T00:55:34.006Z,33.07
2017-03-09T00:56:33.107Z,30.38
2017-03-09T00:57:32.163Z,26.58
2017-03-09T00:58:31.065Z,29.70
2017-03-09T00:59:29.947Z,26.27
2017-03-09T01:00:29.076Z,28.17
2017-03-09T01:01:28.443Z,27.07
2017-03-09T01:02:27.205Z,25.73
2017-03-09T01:03:25.942Z,24.90
2017-03-09T01:04:24.987Z,27.32
2017-03-09T01:05:23.949Z,24.17
2017-03-09T01:06:22.759Z,25.77
2017-03-09T01:07:22.011Z,28.75
2017-03-09T01:08:21.144Z,26.48
2017-03-09T01:09:20.270Z,25.02
2017-03-09T01:10:20.091Z,23.97
2017-03-09T01:11:19.058Z,24.78
2017-03-09T01:12:17.885Z,20.77
2017-03-09T01:13:17.224Z,22.15
2017-03-09T01:14:15.930Z,22.78
2017-03-09T01:15:17.318Z,24.13
2017-03-09T01:16:16.368Z,24.13
2017-03-09T01:17:15.203Z,27.22
2017-03-09T01:18:13.966Z,24.97
2017-03-09T01:19:12.890Z,27.38
2017-03-09T01:20:12.059Z,26.57
2017-03-09T01:21:11.028Z,29.38
2017-03-09T01:22:09.786Z,25.73
2017-03-09T01:23:09.186Z,26.27
2017-03-09T01:24:08.122Z,24.22
2017-03-09T01:25:07.590Z,26.48
2017-03-09T01:26:06.521Z,26.58
2017-03-09T01:27:05.316Z,25.22
2017-03-09T01:28:04.266Z,32.43
2017-03-09T01:29:03.087Z,32.00
2017-03-09T01:30:01.840Z,31.00
2017-03-09T01:31:01.341Z,25.20
2017-03-09T01:32:00.180Z,27.60
2017-03-09T01:32:59.129Z,25.23
2017-03-09T01:33:57.973Z,24.55
2017-03-09T01:34:57.144Z,23.23
2017-03-09T01:35:56.365Z,26.60
2017-03-09T01:36:55.487Z,26.22
2017-03-09T01:37:54.138Z,24.15
2017-03-09T01:38:53.284Z,27.37
2017-03-09T01:39:52.059Z,25.05
2017-03-09T01:40:51.087Z,21.12
2017-03-09T01:41:50.845Z,20.47
2017-03-09T01:42:49.712Z,20.68
2017-03-09T01:43:48.574Z,21.35
2017-03-09T01:44:47.257Z,21.17
2017-03-09T01:45:46.620Z,21.32
2017-03-09T01:46:45.421Z,17.92
2017-03-09T01:47:44.326Z,20.67
2017-03-09T01:48:43.563Z,21.35
2017-03-09T01:49:42.308Z,22.97
2017-03-09T01:50:40.971Z,22.17
2017-03-09T01:51:39.820Z,22.03
2017-03-09T01:52:38.567Z,21.25
2017-03-09T01:53:38.114Z,23.10
2017-03-09T01:54:37.386Z,22.63
2017-03-09T01:55:36.351Z,24.92
2017-03-09T01:56:35.073Z,24.85
2017-03-09T01:57:33.800Z,24.32
2017-03-09T01:58:33.039Z,21.50
2017-03-09T01:59:32.416Z,22.68
2017-03-09T02:00:31.517Z,19.37
2017-03-09T02:01:31.068Z,18.52
2017-03-09T02:02:29.657Z,17.68
2017-03-09T02:03:28.511Z,17.68
2017-03-09T02:04:27.450Z,15.33
2017-03-09T02:05:27.310Z,19.10
2017-03-09T02:06:25.983Z,17.15
2017-03-09T02:07:24.822Z,17.37
2017-03-09T02:08:23.818Z,20.93
2017-03-09T02:09:22.557Z,17.78
2017-03-09T02:10:21.298Z,19.98
2017-03-09T02:11:20.148Z,17.68
2017-03-09T02:12:19.480Z,18.20
2017-03-09T02:13:18.238Z,18.47
2017-03-09T02:14:17.191Z,19.67
2017-03-09T02:15:16.766Z,19.20
2017-03-09T02:16:15.620Z,20.25
2017-03-09T02:17:14.439Z,22.65
2017-03-09T02:18:14.243Z,22.43
2017-03-09T02:19:13.182Z,20.33
2017-03-09T02:20:12.329Z,18.48
2017-03-09T02:21:11.235Z,17.93
2017-03-09T02:22:09.922Z,18.85
2017-03-09T02:23:09.012Z,18.68
2017-03-09T02:24:08.258Z,21.73
2017-03-09T02:25:08.017Z,18.98
2017-03-09T02:26:06.850Z,18.33
2017-03-09T02:27:06.831Z,20.28
2017-03-09T02:28:05.954Z,20.43
2017-03-09T02:29:04.898Z,21.75
2017-03-09T02:30:03.886Z,18.95
2017-03-09T02:31:02.732Z,24.43
2017-03-09T02:32:01.783Z,19.42
2017-03-09T02:33:01.087Z,20.53
2017-03-09T02:34:00.052Z,20.58
2017-03-09T02:34:59.308Z,18.07
2017-03-09T02:35:58.462Z,18.32
2017-03-09T02:36:57.211Z,24.18
2017-03-09T02:37:56.759Z,22.92
2017-03-09T02:38:55.538Z,18.77
2017-03-09T02:39:54.400Z,20.15
2017-03-09T02:40:53.443Z,21.97
2017-03-09T02:41:52.522Z,22.13
2017-03-09T02:42:51.528Z,23.27
2017-03-09T02:43:50.118Z,26.30
2017-03-09T02:44:49.780Z,22.75
2017-03-09T02:45:48.908Z,24.37
2017-03-09T02:46:48.066Z,24.25
2017-03-09T02:47:47.050Z,20.57
2017-03-09T02:48:47.491Z,22.10
2017-03-09T02:49:46.709Z,20.60
2017-03-09T02:50:45.407Z,25.22
2017-03-09T02:51:44.467Z,23.93
2017-03-09T02:52:43.395Z,22.47
2017-03-09T02:53:42.031Z,23.10
2017-03-09T02:54:41.112Z,23.72
2017-03-09T02:55:40.012Z,25.40
2017-03-09T02:56:39.122Z,21.10
2017-03-09T02:57:37.816Z,27.47
2017-03-09T02:58:37.002Z,24.67
2017-03-09T02:59:36.679Z,25.93
2017-03-09T03:00:35.716Z,27.35
2017-03-09T03:01:36.158Z,31.08
2017-03-09T03:02:35.935Z,26.55
2017-03-09T03:03:35.061Z,27.72
2017-03-09T03:04:33.786Z,32.70
2017-03-09T03:05:33.436Z,27.23
2017-03-09T03:06:32.511Z,31.55
2017-03-09T03:07:31.383Z,34.17
2017-03-09T03:08:30.098Z,30.80
2017-03-09T03:09:29.354Z,32.87
2017-03-09T03:10:28.619Z,33.97
2017-03-09T03:11:27.894Z,42.40
2017-03-09T03:12:26.674Z,40.87
2017-03-09T03:13:26.738Z,39.60
2017-03-09T03:14:25.354Z,38.20
2017-03-09T03:15:24.257Z,39.57
2017-03-09T03:16:23.269Z,36.28
2017-03-09T03:17:21.847Z,35.50
2017-03-09T03:18:20.483Z,31.25
2017-03-09T03:19:19.209Z,34.25
2017-03-09T03:20:17.926Z,34.55
2017-03-09T03:21:16.909Z,36.32
2017-03-09T03:22:16.582Z,34.98
2017-03-09T03:23:15.564Z,34.20
2017-03-09T03:24:15.116Z,34.88
2017-03-09T03:25:13.808Z,33.20
2017-03-09T03:26:12.742Z,40.12
2017-03-09T03:27:11.488Z,36.33
2017-03-09T03:28:10.119Z,42.90
2017-03-09T03:29:10.035Z,38.90
2017-03-09T03:30:09.233Z,45.53
2017-03-09T03:31:08.383Z,39.42
2017-03-09T03:32:07.048Z,33.95
2017-03-09T03:33:05.871Z,33.53
2017-03-09T03:34:05.199Z,41.42
2017-03-09T03:35:04.017Z,51.02
2017-03-09T03:36:03.041Z,45.90
2017-03-09T03:37:01.653Z,48.72
2017-03-09T03:38:00.550Z,45.82
2017-03-09T03:38:59.677Z,34.85
2017-03-09T03:39:58.344Z,35.90
2017-03-09T03:40:57.261Z,35.18
2017-03-09T03:41:56.644Z,41.75
2017-03-09T03:42:55.350Z,45.15
2017-03-09T03:43:53.909Z,55.20
2017-03-09T03:44:53.286Z,50.12
2017-03-09T03:45:52.417Z,51.62
2017-03-09T03:46:51.318Z,54.27
2017-03-09T03:47:50.126Z,45.37
2017-03-09T03:48:49.246Z,42.43
2017-03-09T03:49:48.961Z,37.23
2017-03-09T03:50:48.069Z,36.35
2017-03-09T03:51:47.257Z,34.60
2017-03-09T03:52:45.953Z,29.27
2017-03-09T03:53:44.913Z,31.53
2017-03-09T03:54:44.484Z,28.32
2017-03-09T03:55:43.141Z,31.70
2017-03-09T03:56:42.311Z,29.25
2017-03-09T03:57:41.851Z,27.97
2017-03-09T03:58:40.832Z,32.78
2017-03-09T03:59:39.510Z,31.55
2017-03-09T04:00:38.079Z,31.07
2017-03-09T04:01:37.262Z,32.98
2017-03-09T04:02:36.350Z,32.67
2017-03-09T04:03:35.193Z,38.00
2017-03-09T04:04:33.919Z,35.50
2017-03-09T04:05:32.933Z,34.98
2017-03-09T04:06:31.967Z,34.50
2017-03-09T04:07:30.872Z,35.87
2017-03-09T04:08:29.826Z,36.95
2017-03-09T04:09:28.937Z,33.90
2017-03-09T04:10:28.199Z,34.52
2017-03-09T04:11:26.864Z,36.98
2017-03-09T04:12:27.285Z,37.72
2017-03-09T04:13:25.910Z,36.87
2017-03-09T04:14:24.931Z,34.65
2017-03-09T04:15:23.918Z,45.72
2017-03-09T04:16:22.669Z,48.62
2017-03-09T04:17:21.389Z,44.83
2017-03-09T04:18:20.128Z,45.03
2017-03-09T04:19:19.113Z,49.80
2017-03-09T04:20:17.856Z,58.72
2017-03-09T04:21:17.118Z,52.53
2017-03-09T04:22:16.143Z,47.88
2017-03-09T04:23:15.443Z,47.82
2017-03-09T04:24:14.220Z,39.90
2017-03-09T04:25:13.156Z,46.73
2017-03-09T04:26:12.895Z,42.35
2017-03-09T04:27:11.694Z,41.68
2017-03-09T04:28:10.466Z,43.40
2017-03-09T04:29:09.518Z,44.23
2017-03-09T04:30:08.743Z,52.93
2017-03-09T04:31:08.986Z,54.35
2017-03-09T04:32:08.830Z,49.47
2017-03-09T04:33:07.494Z,68.35
2017-03-09T04:34:06.189Z,59.72
2017-03-09T04:35:05.279Z,61.08
2017-03-09T04:36:04.212Z,59.52
2017-03-09T04:37:02.990Z,64.23
2017-03-09T04:38:01.627Z,52.25
2017-03-09T04:39:01.311Z,59.10
2017-03-09T04:40:00.337Z,64.05
2017-03-09T04:40:59.359Z,54.67
2017-03-09T04:41:58.120Z,57.73
2017-03-09T04:42:57.383Z,57.75
2017-03-09T04:43:56.323Z,77.05
2017-03-09T04:44:55.252Z,96.70
2017-03-09T04:45:53.865Z,112.35
2017-03-09T04:46:53.421Z,101.53
2017-03-09T04:47:52.617Z,88.57
2017-03-09T04:48:51.627Z,97.32
2017-03-09T04:49:50.510Z,98.55
2017-03-09T04:50:49.190Z,84.90
2017-03-09T04:51:48.245Z,67.05
2017-03-09T04:52:47.286Z,44.57
2017-03-09T04:53:46.495Z,40.93
2017-03-09T04:54:45.493Z,42.55
2017-03-09T04:55:44.623Z,45.18
2017-03-09T04:56:43.523Z,47.03
2017-03-09T04:57:42.577Z,50.02
2017-03-09T04:58:41.251Z,51.65
2017-03-09T04:59:40.318Z,61.02
2017-03-09T05:00:39.421Z,57.65
2017-03-09T05:01:38.755Z,53.48
2017-03-09T05:02:37.535Z,56.82
2017-03-09T05:03:37.198Z,72.28
2017-03-09T05:04:36.448Z,71.33
2017-03-09T05:05:35.284Z,75.87
2017-03-09T05:06:34.441Z,97.85
2017-03-09T05:07:33.984Z,108.53
2017-03-09T05:08:32.932Z,117.47
2017-03-09T05:09:32.083Z,83.58
2017-03-09T05:10:31.203Z,94.15
2017-03-09T05:11:29.830Z,83.42
2017-03-09T05:12:29.041Z,57.20
2017-03-09T05:13:28.245Z,64.80
2017-03-09T05:14:26.857Z,71.93
2017-03-09T05:15:25.753Z,79.48
2017-03-09T05:16:25.409Z,68.00
2017-03-09T05:17:24.527Z,82.88
2017-03-09T05:18:23.476Z,85.28
2017-03-09T05:19:22.161Z,80.60
2017-03-09T05:20:21.207Z,73.78
2017-03-09T05:21:20.559Z,97.05
2017-03-09T05:22:20.042Z,70.22
2017-03-09T05:23:19.102Z,73.30
2017-03-09T05:24:17.716Z,61.20
2017-03-09T05:25:17.518Z,76.85
2017-03-09T05:26:16.431Z,98.27
2017-03-09T05:27:15.215Z,73.93
2017-03-09T05:28:13.827Z,73.82
2017-03-09T05:29:12.969Z,80.13
2017-03-09T05:30:11.874Z,80.53
2017-03-09T05:31:10.728Z,73.55
2017-03-09T05:32:09.790Z,68.13
2017-03-09T05:33:08.795Z,83.00
2017-03-09T05:34:07.694Z,106.10
2017-03-09T05:35:06.755Z,129.63
2017-03-09T05:36:05.906Z,137.60
2017-03-09T05:37:04.843Z,145.83
2017-03-09T05:38:03.724Z,154.28
2017-03-09T05:39:02.577Z,122.30
2017-03-09T05:40:02.031Z,138.83
2017-03-09T05:41:01.519Z,130.47
2017-03-09T05:42:00.974Z,123.13
2017-03-09T05:43:00.454Z,95.55
2017-03-09T05:43:59.845Z,108.80
2017-03-09T05:44:58.776Z,94.73
2017-03-09T05:45:57.535Z,91.85
2017-03-09T05:46:56.311Z,112.78
2017-03-09T05:47:55.236Z,100.37
2017-03-09T05:48:54.481Z,95.43
2017-03-09T05:49:53.521Z,125.85
2017-03-09T05:50:52.674Z,114.85
2017-03-09T05:51:51.526Z,124.90
2017-03-09T05:52:50.180Z,108.58
2017-03-09T05:53:49.112Z,101.87
2017-03-09T05:54:47.947Z,66.02
2017-03-09T05:55:46.953Z,78.38
2017-03-09T05:56:45.723Z,61.30
2017-03-09T05:57:44.724Z,61.32
2017-03-09T05:58:43.615Z,52.87
2017-03-09T05:59:42.801Z,40.95
2017-03-09T06:00:41.703Z,33.90
2017-03-09T06:01:41.066Z,36.72
2017-03-09T06:02:40.098Z,35.08
2017-03-09T06:03:39.070Z,37.37
2017-03-09T06:04:37.794Z,36.35
2017-03-09T06:05:36.624Z,33.00
2017-03-09T06:06:35.366Z,37.83
2017-03-09T06:07:34.014Z,37.40
2017-03-09T06:08:32.668Z,38.87
2017-03-09T06:09:31.419Z,41.07
2017-03-09T06:10:30.574Z,42.07
2017-03-09T06:11:29.940Z,43.10
2017-03-09T06:12:28.879Z,46.47
2017-03-09T06:13:28.810Z,44.73
2017-03-09T06:14:29.453Z,35.38
2017-03-09T06:15:29.573Z,36.80
2017-03-09T06:16:28.267Z,35.00
2017-03-09T06:17:27.091Z,35.87
2017-03-09T06:18:25.943Z,29.52
2017-03-09T06:19:26.045Z,38.33
2017-03-09T06:20:24.918Z,32.73
2017-03-09T06:21:25.218Z,29.67
2017-03-09T06:22:24.234Z,39.65
2017-03-09T06:23:28.602Z,41.13
2017-03-09T06:24:32.322Z,52.27
2017-03-09T06:25:31.206Z,56.45
2017-03-09T06:26:30.203Z,45.98
2017-03-09T06:27:28.910Z,44.68
2017-03-09T06:28:28.074Z,47.43
2017-03-09T06:29:26.989Z,50.25
2017-03-09T06:30:25.676Z,43.93
2017-03-09T06:31:24.662Z,44.70
2017-03-09T06:32:23.949Z,45.52
2017-03-09T06:33:24.325Z,49.92
2017-03-09T06:34:22.987Z,48.63
2017-03-09T06:35:21.662Z,64.50
2017-03-09T06:36:20.569Z,58.45
2017-03-09T06:37:19.459Z,51.55
2017-03-09T06:38:18.342Z,54.17
2017-03-09T06:39:17.113Z,59.43
2017-03-09T06:40:16.010Z,52.22
2017-03-09T06:41:14.943Z,51.47
2017-03-09T06:42:13.519Z,52.42
2017-03-09T06:43:12.724Z,46.18
2017-03-09T06:44:12.123Z,46.70
2017-03-09T06:45:11.131Z,44.82
2017-03-09T06:46:09.810Z,48.43
2017-03-09T06:47:08.857Z,48.38
2017-03-09T06:48:08.051Z,44.48
2017-03-09T06:49:07.347Z,41.43
2017-03-09T06:50:06.163Z,43.90
2017-03-09T06:51:04.825Z,42.50
2017-03-09T06:52:04.022Z,44.53
2017-03-09T06:53:02.787Z,47.88
2017-03-09T06:54:01.436Z,49.10
2017-03-09T06:55:00.609Z,41.55
2017-03-09T06:56:00.317Z,40.50
2017-03-09T06:56:59.339Z,43.15
2017-03-09T06:57:58.363Z,39.40
2017-03-09T06:58:57.297Z,35.37
2017-03-09T06:59:56.448Z,44.63
2017-03-09T07:00:57.234Z,43.72
2017-03-09T07:01:56.186Z,42.77
2017-03-09T07:02:55.561Z,43.00
2017-03-09T07:03:54.442Z,46.40
2017-03-09T07:04:53.114Z,48.05
2017-03-09T07:05:52.490Z,53.85
2017-03-09T07:06:51.640Z,54.35
2017-03-09T07:07:50.907Z,42.60
2017-03-09T07:08:49.716Z,41.10
2017-03-09T07:09:48.797Z,47.47
2017-03-09T07:10:47.841Z,46.57
2017-03-09T07:11:46.836Z,52.52
2017-03-09T07:12:45.516Z,48.22
2017-03-09T07:13:44.563Z,44.10
2017-03-09T07:14:43.459Z,41.75
2017-03-09T07:15:42.422Z,46.48
2017-03-09T07:16:41.080Z,42.70
2017-03-09T07:17:40.524Z,37.47
2017-03-09T07:18:40.162Z,38.48
2017-03-09T07:19:39.596Z,40.33
2017-03-09T07:20:38.445Z,40.38
2017-03-09T07:21:37.068Z,44.75
2017-03-09T07:22:35.822Z,38.77
2017-03-09T07:23:34.461Z,40.32
2017-03-09T07:24:33.329Z,42.87
2017-03-09T07:25:32.523Z,42.98
2017-03-09T07:26:31.845Z,46.57
2017-03-09T07:27:31.617Z,45.88
2017-03-09T07:28:30.227Z,41.62
2017-03-09T07:29:30.120Z,46.35
2017-03-09T07:30:29.586Z,37.67
2017-03-09T07:31:29.199Z,39.68
2017-03-09T07:32:28.250Z,42.75
2017-03-09T07:33:27.363Z,40.08
2017-03-09T07:34:28.642Z,38.05
2017-03-09T07:35:28.028Z,39.77
2017-03-09T07:36:27.009Z,40.80
2017-03-09T07:37:26.178Z,36.67
2017-03-09T07:38:27.392Z,37.42
2017-03-09T07:39:26.202Z,38.12
2017-03-09T07:40:25.051Z,36.07
2017-03-09T07:41:23.911Z,40.38
2017-03-09T07:42:23.182Z,45.53
2017-03-09T07:43:22.394Z,40.30
2017-03-09T07:44:23.418Z,40.30
2017-03-09T07:45:22.437Z,38.30
2017-03-09T07:46:21.081Z,37.70
2017-03-09T07:47:19.779Z,38.87
2017-03-09T07:48:19.586Z,41.25
2017-03-09T07:49:19.825Z,43.73
2017-03-09T07:50:18.861Z,45.00
2017-03-09T07:51:17.541Z,37.60
2017-03-09T07:52:16.634Z,46.23
2017-03-09T07:53:16.301Z,49.47
2017-03-09T07:54:15.102Z,38.65
2017-03-09T07:55:14.556Z,42.13
2017-03-09T07:56:13.486Z,39.90
2017-03-09T07:57:12.541Z,40.37
2017-03-09T07:58:11.471Z,44.53
2017-03-09T07:59:10.263Z,43.17
2017-03-09T08:00:08.987Z,47.48
2017-03-09T08:01:07.992Z,45.88
2017-03-09T08:02:06.853Z,42.95
2017-03-09T08:03:05.523Z,46.15
2017-03-09T08:04:04.288Z,44.95
2017-03-09T08:05:03.454Z,44.32
2017-03-09T08:06:02.331Z,47.33
2017-03-09T08:07:01.011Z,51.25
2017-03-09T08:07:59.879Z,48.30
2017-03-09T08:08:58.660Z,56.42
2017-03-09T08:09:57.362Z,48.70
2017-03-09T08:10:56.206Z,47.68
2017-03-09T08:11:54.989Z,45.32
2017-03-09T08:12:53.565Z,41.97
2017-03-09T08:13:52.657Z,48.00
2017-03-09T08:14:51.625Z,47.25
2017-03-09T08:15:51.473Z,45.90
2017-03-09T08:16:50.999Z,42.65
2017-03-09T08:17:49.627Z,44.08
2017-03-09T08:18:48.620Z,43.53
2017-03-09T08:19:48.009Z,44.18
2017-03-09T08:20:46.995Z,44.17
2017-03-09T08:21:46.219Z,46.33
2017-03-09T08:22:45.158Z,47.08
2017-03-09T08:23:44.275Z,42.32
2017-03-09T08:24:43.195Z,46.02
2017-03-09T08:25:41.855Z,46.97
2017-03-09T08:26:40.827Z,51.35
2017-03-09T08:27:39.507Z,49.50
2017-03-09T08:28:38.578Z,50.58
2017-03-09T08:29:37.103Z,57.98
2017-03-09T08:30:36.685Z,55.67
2017-03-09T08:31:35.912Z,62.53
2017-03-09T08:32:34.990Z,57.28
2017-03-09T08:33:33.578Z,51.33
2017-03-09T08:34:32.326Z,55.73
2017-03-09T08:35:31.347Z,56.72
2017-03-09T08:36:30.027Z,52.70
2017-03-09T08:37:29.595Z,54.07
2017-03-09T08:39:26.673Z,48.32
2017-03-09T08:40:26.376Z,49.22
2017-03-09T08:41:25.402Z,51.57
2017-03-09T08:42:24.319Z,48.45
2017-03-09T08:43:22.992Z,51.52
2017-03-09T08:44:21.607Z,48.22
2017-03-09T08:45:20.797Z,49.53
2017-03-09T08:47:19.139Z,48.02
2017-03-09T08:48:18.654Z,55.08
2017-03-09T08:49:17.367Z,52.63
2017-03-09T08:50:16.475Z,53.45
2017-03-09T08:51:15.311Z,58.13
2017-03-09T08:52:14.010Z,57.28
2017-03-09T08:53:12.825Z,57.45
2017-03-09T08:54:11.664Z,53.12
2017-03-09T08:55:10.640Z,54.28
2017-03-09T08:56:09.202Z,55.92
2017-03-09T08:57:08.351Z,61.12
2017-03-09T08:58:07.060Z,60.85
2017-03-09T08:59:06.379Z,52.72
2017-03-09T09:00:05.114Z,51.38
2017-03-09T09:01:04.679Z,52.50
2017-03-09T09:02:03.676Z,53.07
2017-03-09T09:03:02.776Z,56.05
2017-03-09T09:04:01.444Z,45.85
2017-03-09T09:05:00.672Z,49.93
2017-03-09T09:06:00.259Z,50.98
2017-03-09T09:06:59.374Z,54.33
2017-03-09T09:07:58.054Z,55.20
2017-03-09T09:08:58.470Z,54.78
2017-03-09T09:09:57.533Z,54.28
2017-03-09T09:10:56.572Z,75.38
2017-03-09T09:11:55.446Z,54.58
2017-03-09T09:12:54.316Z,51.67
2017-03-09T09:13:53.606Z,57.77
2017-03-09T09:14:52.900Z,53.13
2017-03-09T09:15:52.179Z,52.42
2017-03-09T09:16:50.920Z,53.68
2017-03-09T09:17:49.508Z,60.07
2017-03-09T09:18:48.644Z,49.85
2017-03-09T09:19:47.685Z,54.03
2017-03-09T09:20:46.639Z,52.92
2017-03-09T09:21:46.226Z,56.27
2017-03-09T09:22:45.107Z,49.62
2017-03-09T09:23:44.458Z,53.48
2017-03-09T09:24:43.928Z,50.05
2017-03-09T09:25:42.817Z,52.60
2017-03-09T09:26:41.455Z,47.08
2017-03-09T09:27:40.409Z,47.93
2017-03-09T09:28:39.532Z,52.55
2017-03-09T09:29:38.374Z,51.95
2017-03-09T09:30:37.399Z,57.02
2017-03-09T09:31:36.371Z,58.25
2017-03-09T09:32:35.465Z,59.72
2017-03-09T09:33:34.109Z,59.42
2017-03-09T09:34:34.704Z,49.68
2017-03-09T09:35:33.327Z,53.05
2017-03-09T09:36:32.382Z,56.47
2017-03-09T09:37:31.309Z,61.15
2017-03-09T09:38:30.313Z,52.42
2017-03-09T09:39:30.752Z,54.48
2017-03-09T09:40:29.615Z,56.55
2017-03-09T09:41:30.683Z,56.20
2017-03-09T09:42:35.957Z,68.63
2017-03-09T09:43:42.038Z,72.80
2017-03-09T09:44:41.441Z,80.42
2017-03-09T09:45:41.478Z,64.60
2017-03-09T09:46:40.133Z,63.35
2017-03-09T09:47:39.606Z,91.33
2017-03-09T09:48:40.721Z,156.72
2017-03-09T09:49:41.046Z,151.93
2017-03-09T09:50:41.432Z,127.22
2017-03-09T09:51:43.529Z,75.42
2017-03-09T09:52:43.759Z,58.48
2017-03-09T09:53:44.035Z,53.75
2017-03-09T09:54:43.329Z,53.80
2017-03-09T09:55:43.064Z,53.30
2017-03-09T09:56:42.310Z,49.53
2017-03-09T09:57:41.969Z,53.82
2017-03-09T09:58:41.265Z,56.63
2017-03-09T09:59:40.812Z,56.13
2017-03-09T10:00:44.417Z,49.05
2017-03-09T10:01:43.581Z,50.28
2017-03-09T10:02:42.862Z,49.80
2017-03-09T10:03:42.977Z,54.70
2017-03-09T10:04:42.113Z,48.00
2017-03-09T10:05:41.833Z,47.18
2017-03-09T10:06:41.331Z,61.18
2017-03-09T10:07:41.114Z,52.43
2017-03-09T10:08:43.459Z,49.70
2017-03-09T10:09:42.369Z,51.73
2017-03-09T10:10:41.768Z,59.98
2017-03-09T10:11:42.004Z,60.12
2017-03-09T10:12:43.174Z,49.00
2017-03-09T10:13:42.243Z,55.37
2017-03-09T10:14:42.526Z,45.47
2017-03-09T10:15:42.752Z,46.92
2017-03-09T10:16:42.633Z,47.35
2017-03-09T10:17:42.440Z,52.28
2017-03-09T10:18:42.008Z,50.43
2017-03-09T10:19:41.978Z,55.95
2017-03-09T10:20:41.652Z,75.12
2017-03-09T10:21:41.580Z,64.13
2017-03-09T10:22:40.898Z,46.48
2017-03-09T10:23:40.088Z,44.02
2017-03-09T10:24:39.999Z,34.20
2017-03-09T10:25:38.936Z,39.70
2017-03-09T10:26:39.362Z,37.15
2017-03-09T10:27:38.685Z,38.30
2017-03-09T10:28:39.457Z,45.08
2017-03-09T10:29:39.220Z,53.15
2017-03-09T10:30:38.775Z,43.20
2017-03-09T10:31:38.771Z,34.60
2017-03-09T10:32:39.354Z,37.58
2017-03-09T10:33:38.728Z,45.12
2017-03-09T10:34:37.956Z,56.62
2017-03-09T10:35:38.930Z,84.68
2017-03-09T10:36:37.977Z,78.53
2017-03-09T10:37:37.919Z,38.43
2017-03-09T10:38:37.162Z,58.55
2017-03-09T10:39:37.491Z,42.13
2017-03-09T10:40:36.745Z,42.03
2017-03-09T10:41:36.481Z,41.15
2017-03-09T10:42:36.843Z,37.63
2017-03-09T10:43:36.713Z,32.68
2017-03-09T10:44:35.985Z,28.40
2017-03-09T10:45:35.330Z,26.67
2017-03-09T10:46:34.863Z,27.47
2017-03-09T10:47:34.401Z,28.93
2017-03-09T10:48:34.429Z,28.55
2017-03-09T10:49:34.029Z,24.63
2017-03-09T10:50:33.658Z,25.03
2017-03-09T10:51:33.557Z,28.18
2017-03-09T10:52:33.855Z,28.98
2017-03-09T10:53:33.398Z,28.95
2017-03-09T10:54:33.125Z,25.15
2017-03-09T10:55:32.938Z,22.32
2017-03-09T10:56:32.722Z,28.28
2017-03-09T10:57:32.214Z,25.03
2017-03-09T10:58:32.484Z,24.55
2017-03-09T10:59:31.643Z,27.18
2017-03-09T11:00:31.844Z,24.48
2017-03-09T11:01:31.411Z,25.07
2017-03-09T11:02:31.077Z,24.48
2017-03-09T11:03:30.350Z,24.48
2017-03-09T11:04:30.193Z,24.37
2017-03-09T11:05:29.751Z,27.85
2017-03-09T11:06:29.694Z,32.08
2017-03-09T11:07:29.390Z,28.33
2017-03-09T11:08:30.767Z,27.35
2017-03-09T11:09:30.815Z,33.25
2017-03-09T11:10:30.661Z,29.10
2017-03-09T11:11:31.161Z,26.18
2017-03-09T11:12:31.072Z,23.77
2017-03-09T11:13:31.580Z,21.58
2017-03-09T11:14:31.464Z,21.53
2017-03-09T11:15:34.836Z,20.50
2017-03-09T11:16:33.880Z,22.37
2017-03-09T11:17:33.653Z,21.73
2017-03-09T11:18:32.665Z,20.13
2017-03-09T11:19:32.007Z,21.25
2017-03-09T11:20:31.841Z,20.27
2017-03-09T11:21:31.751Z,20.55
2017-03-09T11:22:31.716Z,22.58
2017-03-09T11:23:31.814Z,25.95
2017-03-09T11:24:30.844Z,27.55
2017-03-09T11:25:30.279Z,22.78
2017-03-09T11:26:30.903Z,22.67
2017-03-09T11:27:30.556Z,21.68
2017-03-09T11:28:29.346Z,21.25
2017-03-09T11:29:29.174Z,21.98
2017-03-09T11:30:28.275Z,26.55
2017-03-09T11:31:27.724Z,24.37
2017-03-09T11:32:28.326Z,20.38
2017-03-09T11:33:28.053Z,18.53
2017-03-09T11:34:27.699Z,20.63
2017-03-09T11:35:27.344Z,22.12
2017-03-09T11:36:29.515Z,24.52
2017-03-09T11:37:33.156Z,21.35
2017-03-09T11:38:33.401Z,19.83
2017-03-09T11:39:32.712Z,22.77
2017-03-09T11:40:33.811Z,21.82
2017-03-09T11:41:35.219Z,19.35
2017-03-09T11:42:34.671Z,19.05
2017-03-09T11:43:35.402Z,23.27
2017-03-09T11:44:36.526Z,21.48
2017-03-09T11:45:35.886Z,22.90
2017-03-09T11:46:36.089Z,21.65
2017-03-09T11:47:35.685Z,19.62
2017-03-09T11:48:35.028Z,18.55
2017-03-09T11:49:34.505Z,17.48
2017-03-09T11:50:35.619Z,21.30
2017-03-09T11:51:34.759Z,23.67
2017-03-09T11:52:34.442Z,18.37
2017-03-09T11:53:34.514Z,19.95
2017-03-09T11:54:34.844Z,22.23
2017-03-09T11:55:35.810Z,23.02
2017-03-09T11:56:39.008Z,19.98
2017-03-09T11:57:38.628Z,22.78
2017-03-09T11:58:38.013Z,20.83
2017-03-09T11:59:38.044Z,22.95
2017-03-09T12:00:40.941Z,24.43
2017-03-09T12:01:39.998Z,28.95
2017-03-09T12:02:40.313Z,24.47
2017-03-09T12:03:40.313Z,27.23
2017-03-09T12:04:44.813Z,29.73
2017-03-09T12:05:45.497Z,22.48
2017-03-09T12:06:45.228Z,21.58
2017-03-09T12:07:44.795Z,26.82
2017-03-09T12:08:45.748Z,20.27
2017-03-09T12:09:48.101Z,24.70
2017-03-09T12:10:47.302Z,19.27
2017-03-09T12:11:47.728Z,17.98
2017-03-09T12:12:47.476Z,22.83
2017-03-09T12:13:47.021Z,20.05
2017-03-09T12:14:48.459Z,20.85
2017-03-09T12:15:47.708Z,22.08
2017-03-09T12:16:49.159Z,21.72
2017-03-09T12:17:49.450Z,20.10
2017-03-09T12:18:48.712Z,19.87
2017-03-09T12:19:48.034Z,17.45
2017-03-09T12:20:47.328Z,18.47
2017-03-09T12:21:47.685Z,19.18
2017-03-09T12:22:48.951Z,18.08
2017-03-09T12:23:50.571Z,19.38
2017-03-09T12:24:50.019Z,21.65
2017-03-09T12:25:49.615Z,18.18
2017-03-09T12:26:49.946Z,19.32
2017-03-09T12:27:49.727Z,17.43
2017-03-09T12:28:48.854Z,16.87
2017-03-09T12:29:50.642Z,17.30
2017-03-09T12:30:50.978Z,18.52
2017-03-09T12:31:52.400Z,15.37
2017-03-09T12:32:52.960Z,15.25
2017-03-09T12:33:52.698Z,15.35
2017-03-09T12:34:52.623Z,14.95
2017-03-09T12:35:52.482Z,17.53
2017-03-09T12:36:55.731Z,18.28
2017-03-09T12:37:55.119Z,12.78
2017-03-09T12:38:54.576Z,12.78
2017-03-09T12:39:54.190Z,13.43
2017-03-09T12:40:54.471Z,12.90
2017-03-09T12:42:01.656Z,13.82
2017-03-09T12:43:01.270Z,15.48
2017-03-09T12:44:00.742Z,16.75
2017-03-09T12:45:00.453Z,14.77
2017-03-09T12:46:00.033Z,10.72